createdAt,value
2023-02-07T00:00:22.356Z,36.47
2023-02-07T00:01:22.334Z,33.88
2023-02-07T00:02:23.136Z,33.59
2023-02-07T00:03:22.315Z,33.63
2023-02-07T00:57:41.351Z,25.00
2023-02-07T00:59:41.354Z,25.00
2023-02-07T02:01:41.220Z,28.48
2023-02-07T02:35:47.887Z,26.78
2023-02-07T02:43:39.887Z,28.85
2023-02-07T06:46:29.792Z,129.50
2023-02-07T07:01:29.572Z,192.37
2023-02-07T07:02:29.522Z,196.24
2023-02-07T07:18:29.187Z,216.44
2023-02-07T07:37:28.733Z,220.92
2023-02-07T07:49:28.694Z,242.63
2023-02-07T07:52:28.487Z,250.19
2023-02-07T07:54:28.397Z,243.71
2023-02-07T07:55:28.406Z,242.36
2023-02-07T07:56:31.537Z,246.97
2023-02-07T07:57:28.374Z,247.22
2023-02-07T07:58:28.292Z,248.22
2023-02-07T07:59:28.398Z,247.77
2023-02-07T08:00:28.318Z,250.48
2023-02-07T08:01:28.262Z,260.09
2023-02-07T08:18:27.611Z,250.00
2023-02-07T08:40:26.841Z,210.92
2023-02-07T08:58:25.315Z,134.47
2023-02-07T09:01:26.152Z,103.61
2023-02-07T09:13:26.800Z,67.98
2023-02-07T09:24:26.692Z,99.65
2023-02-07T09:29:25.539Z,114.11
2023-02-07T09:31:40.998Z,122.08
2023-02-07T09:34:25.567Z,124.78
2023-02-07T09:38:25.056Z,137.52
2023-02-07T09:39:25.234Z,141.51
2023-02-07T09:40:25.079Z,145.98
2023-02-07T09:41:24.943Z,147.09
2023-02-07T09:42:25.203Z,148.17
2023-02-07T09:43:25.101Z,145.76
2023-02-07T09:44:25.362Z,95.68
2023-02-07T09:45:25.312Z,103.65
2023-02-07T09:46:24.822Z,96.48
2023-02-07T09:47:25.709Z,111.78
2023-02-07T09:48:24.701Z,117.53
2023-02-07T09:49:25.056Z,118.56
2023-02-07T09:50:25.059Z,121.05
2023-02-07T09:51:24.595Z,119.06
2023-02-07T09:52:24.562Z,114.30
2023-02-07T09:53:24.553Z,113.60
2023-02-07T09:54:24.525Z,114.52
2023-02-07T09:55:25.645Z,114.56
2023-02-07T09:56:24.422Z,117.64
2023-02-07T09:57:24.383Z,120.42
2023-02-07T09:58:24.349Z,120.15
2023-02-07T09:59:25.104Z,121.02
2023-02-07T10:00:24.281Z,123.97
2023-02-07T10:01:24.276Z,127.38
2023-02-07T10:02:24.210Z,129.07
2023-02-07T10:03:24.552Z,130.25
2023-02-07T10:04:24.117Z,133.35
2023-02-07T10:05:24.555Z,135.99
2023-02-07T10:06:24.027Z,138.09
2023-02-07T10:07:24.017Z,140.31
2023-02-07T10:08:28.363Z,140.97
2023-02-07T10:09:23.898Z,141.27
2023-02-07T10:10:24.056Z,142.41
2023-02-07T10:11:23.825Z,144.64
2023-02-07T10:12:23.756Z,147.95
2023-02-07T10:13:23.712Z,151.84
2023-02-07T10:14:24.125Z,155.21
2023-02-07T10:15:24.130Z,158.31
2023-02-07T10:16:23.577Z,158.58
2023-02-07T10:17:31.551Z,162.24
2023-02-07T10:18:23.523Z,162.54
2023-02-07T10:19:23.440Z,163.33
2023-02-07T10:20:23.559Z,164.30
2023-02-07T10:21:23.360Z,165.91
2023-02-07T10:22:23.337Z,169.41
2023-02-07T10:23:23.284Z,172.83
2023-02-07T10:24:23.323Z,172.53
2023-02-07T10:25:23.559Z,174.89
2023-02-07T10:26:23.137Z,174.25
2023-02-07T10:27:23.064Z,175.88
2023-02-07T10:28:23.155Z,178.70
2023-02-07T10:29:22.972Z,184.77
2023-02-07T10:30:23.145Z,189.78
2023-02-07T10:31:23.007Z,135.48
2023-02-07T10:32:22.816Z,110.48
2023-02-07T10:33:22.970Z,108.51
2023-02-07T10:34:22.768Z,77.51
2023-02-07T10:35:23.095Z,59.45
2023-02-07T10:36:23.063Z,57.36
2023-02-07T10:37:22.647Z,25.00
2023-02-07T10:38:22.623Z,23.64
2023-02-07T10:39:22.578Z,22.94
2023-02-07T10:40:22.564Z,18.25
2023-02-07T10:41:22.596Z,25.00
2023-02-07T10:42:22.513Z,32.08
2023-02-07T10:43:23.009Z,25.03
2023-02-07T10:44:22.478Z,22.69
2023-02-07T10:45:22.461Z,21.37
2023-02-07T10:46:22.577Z,25.00
2023-02-07T10:47:22.618Z,25.15
2023-02-07T10:48:22.416Z,30.78
2023-02-07T10:49:25.851Z,28.53
2023-02-07T10:50:41.529Z,28.56
2023-02-07T10:51:22.574Z,28.59
2023-02-07T10:52:22.388Z,25.47
2023-02-07T10:53:22.364Z,23.11
2023-02-07T10:54:22.358Z,32.23
2023-02-07T10:55:22.344Z,51.60
2023-02-07T10:56:24.074Z,62.11
2023-02-07T10:57:22.572Z,62.38
2023-02-07T10:58:23.915Z,63.10
2023-02-07T10:59:22.604Z,66.49
2023-02-07T11:00:22.608Z,74.70
2023-02-07T11:01:22.662Z,84.03
2023-02-07T11:02:22.554Z,86.91
2023-02-07T11:03:22.596Z,95.68
2023-02-07T11:04:22.517Z,96.54
2023-02-07T11:05:22.445Z,97.88
2023-02-07T11:06:22.489Z,100.94
2023-02-07T11:07:22.374Z,106.71
2023-02-07T11:08:22.585Z,111.28
2023-02-07T11:09:22.368Z,113.53
2023-02-07T11:10:22.278Z,118.32
2023-02-07T11:11:22.242Z,120.33
2023-02-07T11:12:22.589Z,123.54
2023-02-07T11:13:22.177Z,126.30
2023-02-07T11:14:22.138Z,128.04
2023-02-07T11:15:22.097Z,130.60
2023-02-07T11:16:22.125Z,135.06
2023-02-07T11:17:22.024Z,138.09
2023-02-07T11:18:22.603Z,140.93
2023-02-07T11:19:21.967Z,143.18
2023-02-07T11:20:21.919Z,144.98
2023-02-07T11:21:22.083Z,147.00
2023-02-07T11:22:21.843Z,150.03
2023-02-07T11:23:21.796Z,151.44
2023-02-07T11:24:21.754Z,154.30
2023-02-07T11:25:21.729Z,158.30
2023-02-07T11:26:24.088Z,160.78
2023-02-07T11:27:22.100Z,161.09
2023-02-07T11:28:21.698Z,164.98
2023-02-07T11:29:22.100Z,166.29
2023-02-07T11:30:21.479Z,165.45
2023-02-07T11:31:21.526Z,166.59
2023-02-07T11:32:23.549Z,166.11
2023-02-07T11:33:21.346Z,166.24
2023-02-07T11:34:21.291Z,166.50
2023-02-07T11:35:21.298Z,167.36
2023-02-07T11:36:21.649Z,168.84
2023-02-07T11:37:21.589Z,170.00
2023-02-07T11:38:22.200Z,169.29
2023-02-07T11:39:21.087Z,169.45
2023-02-07T11:40:21.051Z,168.93
2023-02-07T11:41:21.009Z,169.72
2023-02-07T11:42:21.094Z,168.76
2023-02-07T11:43:20.925Z,169.98
2023-02-07T11:44:20.880Z,171.83
2023-02-07T11:45:20.845Z,167.49
2023-02-07T11:46:21.614Z,167.03
2023-02-07T11:47:21.090Z,168.79
2023-02-07T11:48:21.092Z,174.94
2023-02-07T11:49:20.682Z,173.40
2023-02-07T11:50:20.633Z,173.80
2023-02-07T11:51:20.618Z,172.15
2023-02-07T11:52:21.191Z,172.07
2023-02-07T11:53:20.511Z,170.78
2023-02-07T11:54:20.470Z,169.57
2023-02-07T11:55:20.419Z,170.90
2023-02-07T11:56:20.384Z,171.60
2023-02-07T11:57:20.335Z,169.88
2023-02-07T11:58:20.301Z,170.24
2023-02-07T11:59:20.271Z,169.88
2023-02-07T12:00:20.218Z,170.73
2023-02-07T12:01:20.176Z,171.49
2023-02-07T12:02:20.224Z,169.86
2023-02-07T12:03:20.104Z,168.64
2023-02-07T12:04:20.074Z,168.89
2023-02-07T12:05:20.114Z,168.12
2023-02-07T12:06:20.000Z,168.61
2023-02-07T12:07:20.129Z,165.46
2023-02-07T12:08:20.106Z,168.63
2023-02-07T12:09:19.878Z,170.24
2023-02-07T12:10:19.848Z,167.73
2023-02-07T12:11:19.821Z,169.23
2023-02-07T12:12:20.105Z,166.87
2023-02-07T12:13:20.110Z,166.01
2023-02-07T12:14:19.706Z,166.88
2023-02-07T12:15:19.669Z,166.73
2023-02-07T12:16:20.211Z,165.86
2023-02-07T12:17:19.602Z,166.27
2023-02-07T12:18:19.619Z,165.25
2023-02-07T12:19:19.573Z,164.58
2023-02-07T12:20:19.505Z,166.04
2023-02-07T12:21:19.467Z,164.97
2023-02-07T12:22:20.106Z,163.74
2023-02-07T12:23:40.725Z,163.10
2023-02-07T12:24:19.371Z,163.27
2023-02-07T12:25:19.336Z,163.46
2023-02-07T12:26:19.310Z,163.67
2023-02-07T12:27:19.274Z,163.37
2023-02-07T12:28:19.676Z,163.34
2023-02-07T12:29:19.209Z,163.68
2023-02-07T12:30:19.185Z,162.72
2023-02-07T12:31:19.289Z,160.36
2023-02-07T12:32:19.375Z,160.85
2023-02-07T12:33:19.115Z,161.05
2023-02-07T12:34:19.115Z,161.22
2023-02-07T12:35:19.035Z,160.68
2023-02-07T12:36:18.999Z,159.64
2023-02-07T12:37:18.973Z,158.69
2023-02-07T12:38:18.938Z,158.37
2023-02-07T12:39:19.140Z,155.25
2023-02-07T12:40:18.886Z,155.57
2023-02-07T12:41:18.853Z,156.87
2023-02-07T12:42:18.872Z,156.99
2023-02-07T12:43:18.841Z,155.05
2023-02-07T12:44:19.628Z,155.65
2023-02-07T12:45:19.567Z,156.06
2023-02-07T12:46:19.693Z,155.42
2023-02-07T12:47:18.733Z,155.93
2023-02-07T12:48:19.120Z,153.51
2023-02-07T12:49:18.865Z,153.43
2023-02-07T12:50:19.129Z,152.34
2023-02-07T12:51:18.648Z,151.91
2023-02-07T12:52:18.612Z,153.33
2023-02-07T12:53:18.665Z,151.20
2023-02-07T12:54:18.703Z,152.02
2023-02-07T12:55:18.582Z,153.09
2023-02-07T12:56:18.517Z,148.11
2023-02-07T12:57:18.475Z,144.86
2023-02-07T12:58:18.621Z,145.25
2023-02-07T12:59:18.641Z,144.56
2023-02-07T13:00:18.386Z,146.13
2023-02-07T13:01:18.512Z,144.13
2023-02-07T13:02:18.383Z,147.09
2023-02-07T13:03:18.704Z,145.92
2023-02-07T13:04:18.642Z,140.56
2023-02-07T13:05:18.283Z,143.01
2023-02-07T13:06:18.257Z,173.08
2023-02-07T13:07:18.234Z,203.77
2023-02-07T13:08:18.227Z,209.76
2023-02-07T13:09:18.670Z,223.56
2023-02-07T13:10:18.214Z,183.97
2023-02-07T13:11:18.167Z,156.22
2023-02-07T13:12:18.133Z,162.05
2023-02-07T13:13:18.128Z,159.28
2023-02-07T13:14:18.121Z,160.13
2023-02-07T13:15:18.653Z,165.51
2023-02-07T13:16:18.123Z,160.70
2023-02-07T13:17:18.017Z,165.57
2023-02-07T13:18:17.975Z,159.27
2023-02-07T13:19:17.992Z,156.75
2023-02-07T13:20:17.931Z,158.48
2023-02-07T13:21:17.923Z,155.16
2023-02-07T13:22:17.925Z,155.51
2023-02-07T13:23:18.743Z,151.94
2023-02-07T13:24:17.871Z,156.23
2023-02-07T13:25:17.823Z,155.89
2023-02-07T13:26:17.794Z,155.81
2023-02-07T13:27:17.785Z,154.30
2023-02-07T13:28:18.347Z,153.16
2023-02-07T13:29:17.709Z,150.76
2023-02-07T13:30:17.712Z,151.82
2023-02-07T13:31:17.888Z,152.48
2023-02-07T13:32:17.647Z,150.72
2023-02-07T13:33:17.615Z,151.14
2023-02-07T13:34:18.122Z,149.28
2023-02-07T13:35:18.120Z,150.97
2023-02-07T13:36:17.550Z,150.68
2023-02-07T13:37:17.658Z,153.37
2023-02-07T13:38:17.650Z,149.40
2023-02-07T13:39:18.977Z,151.50
2023-02-07T13:40:19.373Z,151.88
2023-02-07T13:41:17.447Z,152.05
2023-02-07T13:42:17.448Z,152.58
2023-02-07T13:43:17.467Z,153.32
2023-02-07T13:44:17.366Z,152.19
2023-02-07T13:45:17.333Z,149.61
2023-02-07T13:46:17.326Z,147.82
2023-02-07T13:47:17.316Z,150.39
2023-02-07T13:48:19.330Z,152.27
2023-02-07T13:49:17.251Z,152.33
2023-02-07T13:50:17.264Z,152.50
2023-02-07T13:51:17.218Z,152.14
2023-02-07T13:52:17.187Z,152.94
2023-02-07T13:53:17.637Z,155.40
2023-02-07T13:54:17.140Z,152.16
2023-02-07T13:55:17.125Z,150.71
2023-02-07T13:56:17.330Z,151.84
2023-02-07T13:57:17.070Z,150.98
2023-02-07T13:58:17.179Z,151.36
2023-02-07T13:59:17.212Z,148.50
2023-02-07T14:00:17.037Z,149.96
2023-02-07T14:01:17.003Z,153.25
2023-02-07T14:02:16.958Z,148.21
2023-02-07T14:03:16.973Z,146.98
2023-02-07T14:04:16.911Z,149.01
2023-02-07T14:05:17.153Z,147.65
2023-02-07T14:06:17.149Z,147.87
2023-02-07T14:07:16.841Z,147.95
2023-02-07T14:08:16.842Z,150.69
2023-02-07T14:09:16.821Z,148.27
2023-02-07T14:10:16.808Z,147.85
2023-02-07T14:11:17.223Z,151.07
2023-02-07T14:12:16.728Z,150.73
2023-02-07T14:13:16.718Z,151.09
2023-02-07T14:14:16.711Z,150.49
2023-02-07T14:15:16.697Z,151.74
2023-02-07T14:16:16.685Z,149.08
2023-02-07T14:17:16.643Z,152.40
2023-02-07T14:18:16.609Z,149.40
2023-02-07T14:19:16.602Z,145.95
2023-02-07T14:20:16.553Z,145.86
2023-02-07T14:21:16.656Z,147.98
2023-02-07T14:22:16.510Z,148.81
2023-02-07T14:23:16.505Z,149.78
2023-02-07T14:24:16.498Z,151.80
2023-02-07T14:25:16.456Z,150.14
2023-02-07T14:26:16.670Z,147.29
2023-02-07T14:27:16.393Z,148.82
2023-02-07T14:28:16.408Z,149.67
2023-02-07T14:29:16.350Z,145.92
2023-02-07T14:30:16.351Z,147.48
2023-02-07T14:31:16.830Z,150.02
2023-02-07T14:32:16.299Z,148.05
2023-02-07T14:33:16.268Z,150.59
2023-02-07T14:34:16.264Z,145.81
2023-02-07T14:35:16.215Z,146.82
2023-02-07T14:36:16.197Z,145.48
2023-02-07T14:37:16.665Z,149.68
2023-02-07T14:38:16.175Z,150.33
2023-02-07T14:39:16.134Z,151.30
2023-02-07T14:40:16.199Z,152.68
2023-02-07T14:41:16.054Z,147.41
2023-02-07T14:42:16.165Z,148.48
2023-02-07T14:43:15.995Z,145.59
2023-02-07T14:44:15.996Z,145.00
2023-02-07T14:45:16.165Z,146.66
2023-02-07T14:46:15.961Z,148.88
2023-02-07T14:47:15.941Z,147.13
2023-02-07T14:48:15.865Z,149.81
2023-02-07T14:49:15.844Z,145.38
2023-02-07T14:50:15.863Z,149.01
2023-02-07T14:51:15.859Z,151.47
2023-02-07T14:52:15.912Z,149.57
2023-02-07T14:53:15.774Z,145.64
2023-02-07T14:54:15.720Z,150.94
2023-02-07T14:55:16.215Z,147.49
2023-02-07T14:56:15.689Z,147.37
2023-02-07T14:57:15.684Z,151.86
2023-02-07T14:58:15.657Z,152.28
2023-02-07T14:59:15.615Z,146.51
2023-02-07T15:00:15.658Z,148.92
2023-02-07T15:01:15.560Z,151.54
2023-02-07T15:02:15.608Z,149.97
2023-02-07T15:03:15.501Z,151.61
2023-02-07T15:04:15.446Z,145.25
2023-02-07T15:05:15.465Z,149.06
2023-02-07T15:06:21.009Z,148.65
2023-02-07T15:07:15.373Z,148.79
2023-02-07T15:08:15.339Z,149.18
2023-02-07T15:09:15.330Z,149.58
2023-02-07T15:10:15.293Z,148.86
2023-02-07T15:11:15.281Z,152.36
2023-02-07T15:12:26.572Z,148.81
2023-02-07T15:13:15.214Z,149.10
2023-02-07T15:14:15.193Z,149.58
2023-02-07T15:15:15.167Z,148.58
2023-02-07T15:16:15.247Z,151.87
2023-02-07T15:17:15.122Z,149.03
2023-02-07T15:18:15.089Z,147.55
2023-02-07T15:19:15.699Z,147.80
2023-02-07T15:20:15.413Z,151.06
2023-02-07T15:21:15.136Z,148.25
2023-02-07T15:22:25.285Z,151.54
2023-02-07T15:23:15.063Z,151.61
2023-02-07T15:24:14.956Z,151.89
2023-02-07T15:25:14.973Z,151.60
2023-02-07T15:26:15.001Z,151.86
2023-02-07T15:27:14.850Z,149.71
2023-02-07T15:28:25.134Z,151.62
2023-02-07T15:29:14.892Z,151.82
2023-02-07T15:30:15.692Z,151.94
2023-02-07T15:31:14.852Z,152.81
2023-02-07T15:32:14.853Z,151.84
2023-02-07T15:33:14.735Z,151.45
2023-02-07T15:34:14.785Z,152.08
2023-02-07T15:35:14.699Z,148.56
2023-02-07T15:36:14.642Z,148.49
2023-02-07T15:37:14.617Z,148.92
2023-02-07T15:38:14.586Z,150.20
2023-02-07T15:39:14.656Z,147.49
2023-02-07T15:40:14.550Z,148.35
2023-02-07T15:41:14.518Z,150.51
2023-02-07T15:42:14.497Z,147.90
2023-02-07T15:43:14.471Z,150.35
2023-02-07T15:44:17.187Z,150.03
2023-02-07T15:45:24.263Z,150.03
2023-02-07T15:46:14.448Z,150.28
2023-02-07T15:47:14.384Z,150.82
2023-02-07T15:48:14.370Z,150.89
2023-02-07T15:49:15.181Z,148.70
2023-02-07T15:50:14.319Z,150.81
2023-02-07T15:51:14.325Z,151.01
2023-02-07T15:52:14.285Z,149.64
2023-02-07T15:53:14.242Z,149.15
2023-02-07T15:54:14.365Z,150.27
2023-02-07T15:55:14.195Z,147.48
2023-02-07T15:56:14.289Z,147.10
2023-02-07T15:57:14.140Z,149.83
2023-02-07T15:58:16.684Z,148.15
2023-02-07T15:59:14.104Z,148.24
2023-02-07T16:00:14.693Z,148.26
2023-02-07T16:01:14.048Z,146.87
2023-02-07T16:02:14.033Z,146.58
2023-02-07T16:03:14.048Z,148.16
2023-02-07T16:04:13.985Z,147.36
2023-02-07T16:05:13.967Z,147.52
2023-02-07T16:06:13.978Z,149.27
2023-02-07T16:07:13.946Z,148.31
2023-02-07T16:08:13.930Z,147.34
2023-02-07T16:09:14.045Z,143.19
2023-02-07T16:10:13.879Z,147.53
2023-02-07T16:11:13.931Z,146.10
2023-02-07T16:12:13.828Z,148.88
2023-02-07T16:13:13.818Z,147.56
2023-02-07T16:14:13.796Z,144.96
2023-02-07T16:15:13.783Z,146.87
2023-02-07T16:16:13.832Z,145.92
2023-02-07T16:17:13.755Z,146.45
2023-02-07T16:18:13.741Z,145.10
2023-02-07T16:19:13.724Z,145.93
2023-02-07T16:20:14.086Z,140.08
2023-02-07T16:21:13.692Z,141.89
2023-02-07T16:22:13.680Z,146.63
2023-02-07T16:23:13.685Z,144.33
2023-02-07T16:24:13.647Z,147.64
2023-02-07T16:25:13.622Z,141.40
2023-02-07T16:26:13.601Z,144.62
2023-02-07T16:27:20.203Z,147.24
2023-02-07T16:28:13.603Z,147.36
2023-02-07T16:29:13.545Z,147.84
2023-02-07T16:30:13.557Z,145.38
2023-02-07T16:31:13.673Z,146.14
2023-02-07T16:32:13.526Z,144.52
2023-02-07T16:33:13.494Z,145.01
2023-02-07T16:34:13.468Z,145.26
2023-02-07T16:35:13.455Z,141.73
2023-02-07T16:36:13.434Z,144.80
2023-02-07T16:37:13.420Z,144.04
2023-02-07T16:38:13.409Z,144.36
2023-02-07T16:39:13.412Z,143.20
2023-02-07T16:40:13.395Z,143.66
2023-02-07T16:41:13.406Z,144.39
2023-02-07T16:42:13.361Z,144.14
2023-02-07T16:43:13.316Z,142.67
2023-02-07T16:44:14.206Z,143.82
2023-02-07T16:45:13.295Z,143.01
2023-02-07T16:46:13.317Z,139.93
2023-02-07T16:47:13.258Z,141.01
2023-02-07T16:48:13.254Z,142.81
2023-02-07T16:49:13.234Z,141.27
2023-02-07T16:50:13.217Z,141.56
2023-02-07T16:51:14.121Z,143.22
2023-02-07T16:52:13.183Z,143.22
2023-02-07T16:53:13.180Z,142.95
2023-02-07T16:54:13.203Z,143.31
2023-02-07T16:55:13.156Z,142.76
2023-02-07T16:56:13.118Z,138.29
2023-02-07T16:57:13.102Z,138.12
2023-02-07T16:58:13.091Z,140.00
2023-02-07T16:59:13.128Z,139.41
2023-02-07T17:00:13.059Z,139.93
2023-02-07T17:01:13.106Z,139.56
2023-02-07T17:02:13.151Z,138.88
2023-02-07T17:03:14.315Z,140.22
2023-02-07T17:04:12.993Z,141.27
2023-02-07T17:05:12.981Z,142.89
2023-02-07T17:06:13.046Z,141.31
2023-02-07T17:07:12.970Z,140.46
2023-02-07T17:08:13.330Z,139.72
2023-02-07T17:09:12.913Z,139.70
2023-02-07T17:10:12.903Z,139.92
2023-02-07T17:11:12.904Z,138.55
2023-02-07T17:12:12.866Z,137.87
2023-02-07T17:13:13.724Z,137.95
2023-02-07T17:14:12.834Z,138.14
2023-02-07T17:15:12.817Z,136.93
2023-02-07T17:16:12.849Z,136.64
2023-02-07T17:17:12.774Z,136.87
2023-02-07T17:18:13.223Z,136.48
2023-02-07T17:19:12.739Z,132.71
2023-02-07T17:20:12.714Z,136.46
2023-02-07T17:21:12.700Z,136.01
2023-02-07T17:22:12.674Z,136.63
2023-02-07T17:23:12.658Z,132.85
2023-02-07T17:24:12.707Z,136.23
2023-02-07T17:25:12.618Z,135.47
2023-02-07T17:26:12.601Z,135.41
2023-02-07T17:27:12.601Z,133.66
2023-02-07T17:28:12.584Z,134.81
2023-02-07T17:29:12.541Z,131.95
2023-02-07T17:30:12.518Z,132.18
2023-02-07T17:31:12.611Z,131.68
2023-02-07T17:32:12.556Z,134.30
2023-02-07T17:33:12.456Z,134.04
2023-02-07T17:34:12.432Z,133.95
2023-02-07T17:35:12.417Z,133.44
2023-02-07T17:36:12.386Z,131.97
2023-02-07T17:37:12.356Z,133.71
2023-02-07T17:38:12.331Z,131.38
2023-02-07T17:39:12.303Z,132.14
2023-02-07T17:40:12.293Z,132.01
2023-02-07T17:41:12.278Z,131.92
2023-02-07T17:42:12.225Z,133.76
2023-02-07T17:43:12.233Z,130.64
2023-02-07T17:44:12.200Z,130.94
2023-02-07T17:45:12.155Z,128.82
2023-02-07T17:46:12.168Z,131.45
2023-02-07T17:47:12.112Z,132.35
2023-02-07T17:48:12.243Z,131.78
2023-02-07T17:49:12.069Z,129.34
2023-02-07T17:50:12.041Z,130.46
2023-02-07T17:51:12.098Z,130.00
2023-02-07T17:52:12.153Z,129.84
2023-02-07T17:53:12.733Z,128.77
2023-02-07T17:54:11.969Z,128.20
2023-02-07T17:55:11.966Z,129.23
2023-02-07T17:56:11.920Z,130.11
2023-02-07T17:57:11.896Z,129.52
2023-02-07T17:58:12.282Z,129.29
2023-02-07T17:59:11.966Z,128.43
2023-02-07T18:00:11.842Z,128.76
2023-02-07T18:01:11.852Z,129.65
2023-02-07T18:02:11.860Z,128.54
2023-02-07T18:03:11.847Z,128.43
2023-02-07T18:04:18.727Z,129.04
2023-02-07T18:05:11.783Z,129.28
2023-02-07T18:06:11.706Z,129.43
2023-02-07T18:07:11.686Z,129.34
2023-02-07T18:08:11.660Z,128.86
2023-02-07T18:09:11.645Z,129.64
2023-02-07T18:10:11.627Z,128.00
2023-02-07T18:11:11.734Z,126.37
2023-02-07T18:12:11.562Z,125.80
2023-02-07T18:13:12.232Z,126.27
2023-02-07T18:14:11.518Z,126.66
2023-02-07T18:15:11.523Z,126.68
2023-02-07T18:16:11.554Z,126.72
2023-02-07T18:17:11.467Z,125.56
2023-02-07T18:18:11.431Z,125.79
2023-02-07T18:19:11.413Z,126.79
2023-02-07T18:20:11.390Z,125.30
2023-02-07T18:21:12.706Z,125.39
2023-02-07T18:22:11.338Z,126.79
2023-02-07T18:23:11.323Z,125.96
2023-02-07T18:24:12.247Z,125.05
2023-02-07T18:25:11.261Z,126.64
2023-02-07T18:26:11.236Z,126.58
2023-02-07T18:27:11.206Z,124.11
2023-02-07T18:28:11.237Z,123.73
2023-02-07T18:29:11.150Z,124.16
2023-02-07T18:30:11.126Z,123.82
2023-02-07T18:31:11.270Z,122.33
2023-02-07T18:32:11.088Z,122.04
2023-02-07T18:33:12.786Z,121.15
2023-02-07T18:34:11.100Z,126.27
2023-02-07T18:35:10.989Z,125.28
2023-02-07T18:36:10.978Z,123.28
2023-02-07T18:37:10.965Z,122.60
2023-02-07T18:38:10.922Z,122.54
2023-02-07T18:39:10.905Z,121.94
2023-02-07T18:40:11.754Z,122.15
2023-02-07T18:41:10.846Z,123.59
2023-02-07T18:42:11.310Z,121.67
2023-02-07T18:43:10.800Z,122.15
2023-02-07T18:44:10.777Z,120.89
2023-02-07T18:45:10.756Z,122.22
2023-02-07T18:46:10.773Z,120.21
2023-02-07T18:47:10.750Z,119.99
2023-02-07T18:48:10.727Z,119.77
2023-02-07T18:49:10.750Z,118.73
2023-02-07T18:50:10.686Z,119.36
2023-02-07T18:51:10.665Z,119.52
2023-02-07T18:52:10.642Z,119.85
2023-02-07T18:53:10.622Z,118.98
2023-02-07T18:54:10.617Z,119.25
2023-02-07T18:55:10.624Z,118.81
2023-02-07T18:56:10.555Z,119.14
2023-02-07T18:57:10.539Z,116.65
2023-02-07T18:58:11.248Z,119.09
2023-02-07T18:59:10.495Z,118.21
2023-02-07T19:00:10.485Z,117.64
2023-02-07T19:01:10.585Z,119.41
2023-02-07T19:02:10.448Z,117.17
2023-02-07T19:03:10.488Z,117.60
2023-02-07T19:04:11.248Z,117.14
2023-02-07T19:05:10.382Z,117.91
2023-02-07T19:06:10.402Z,116.96
2023-02-07T19:07:10.422Z,116.17
2023-02-07T19:08:10.321Z,116.29
2023-02-07T19:09:10.297Z,117.42
2023-02-07T19:10:10.270Z,115.56
2023-02-07T19:11:10.256Z,116.64
2023-02-07T19:12:10.953Z,115.94
2023-02-07T19:13:10.204Z,115.81
2023-02-07T19:14:10.164Z,115.93
2023-02-07T19:15:10.187Z,114.78
2023-02-07T19:16:10.190Z,115.93
2023-02-07T19:17:10.089Z,114.98
2023-02-07T19:18:10.071Z,116.27
2023-02-07T19:19:10.071Z,115.53
2023-02-07T19:20:10.047Z,115.49
2023-02-07T19:21:10.004Z,115.01
2023-02-07T19:22:10.072Z,115.24
2023-02-07T19:23:09.951Z,115.16
2023-02-07T19:24:09.956Z,113.80
2023-02-07T19:25:09.917Z,114.15
2023-02-07T19:26:09.902Z,113.53
2023-02-07T19:27:09.939Z,114.17
2023-02-07T19:28:09.966Z,113.53
2023-02-07T19:29:09.835Z,110.82
2023-02-07T19:30:09.809Z,114.33
2023-02-07T19:31:09.979Z,113.04
2023-02-07T19:32:09.778Z,112.97
2023-02-07T19:33:09.740Z,112.79
2023-02-07T19:34:09.718Z,112.95
2023-02-07T19:35:09.760Z,112.22
2023-02-07T19:36:09.704Z,112.32
2023-02-07T19:37:09.659Z,113.43
2023-02-07T19:38:09.632Z,111.60
2023-02-07T19:39:09.612Z,113.34
2023-02-07T19:40:09.626Z,110.79
2023-02-07T19:41:09.685Z,110.77
2023-02-07T19:42:09.571Z,111.47
2023-02-07T19:43:09.509Z,111.65
2023-02-07T19:44:09.496Z,110.44
2023-02-07T19:45:09.520Z,111.78
2023-02-07T19:46:09.588Z,111.80
2023-02-07T19:47:09.444Z,111.26
2023-02-07T19:48:09.437Z,111.09
2023-02-07T19:49:11.632Z,111.52
2023-02-07T19:50:09.824Z,111.58
2023-02-07T19:51:09.360Z,111.89
2023-02-07T19:52:09.305Z,111.57
2023-02-07T19:53:09.345Z,110.70
2023-02-07T19:54:08.282Z,111.48
2023-02-07T19:55:09.769Z,110.45
2023-02-07T19:56:09.235Z,109.73
2023-02-07T19:57:09.217Z,109.55
2023-02-07T19:58:09.280Z,108.45
2023-02-07T19:59:09.195Z,109.09
2023-02-07T20:00:09.220Z,109.82
2023-02-07T20:01:09.149Z,110.33
2023-02-07T20:02:09.282Z,110.98
2023-02-07T20:03:09.687Z,109.26
2023-02-07T20:04:09.124Z,109.49
2023-02-07T20:05:09.061Z,108.58
2023-02-07T20:06:11.779Z,109.70
2023-02-07T20:07:09.316Z,109.78
2023-02-07T20:08:08.996Z,109.54
2023-02-07T20:09:09.059Z,107.37
2023-02-07T20:10:08.945Z,109.03
2023-02-07T20:11:08.935Z,106.89
2023-02-07T20:12:08.922Z,107.19
2023-02-07T20:13:08.908Z,106.57
2023-02-07T20:14:08.861Z,107.76
2023-02-07T20:15:08.889Z,107.29
2023-02-07T20:16:08.824Z,106.95
2023-02-07T20:17:09.779Z,107.83
2023-02-07T20:18:08.778Z,108.16
2023-02-07T20:19:09.290Z,106.58
2023-02-07T20:20:08.753Z,105.68
2023-02-07T20:21:11.845Z,106.03
2023-02-07T20:22:08.783Z,106.15
2023-02-07T20:23:08.721Z,106.17
2023-02-07T20:24:08.657Z,106.44
2023-02-07T20:25:09.299Z,105.53
2023-02-07T20:26:08.797Z,106.28
2023-02-07T20:27:08.592Z,105.35
2023-02-07T20:28:08.735Z,104.18
2023-02-07T20:29:08.579Z,104.23
2023-02-07T20:30:08.556Z,105.37
2023-02-07T20:31:08.719Z,105.59
2023-02-07T20:32:08.482Z,103.51
2023-02-07T20:33:08.511Z,105.34
2023-02-07T20:34:08.446Z,102.74
2023-02-07T20:35:08.452Z,103.87
2023-02-07T20:36:08.433Z,104.52
2023-02-07T20:37:08.380Z,104.19
2023-02-07T20:38:08.390Z,101.40
2023-02-07T20:39:08.347Z,103.28
2023-02-07T20:40:08.316Z,101.74
2023-02-07T20:41:07.291Z,103.42
2023-02-07T20:42:08.269Z,101.29
2023-02-07T20:43:08.238Z,103.73
2023-02-07T20:44:08.212Z,103.39
2023-02-07T20:45:08.195Z,102.02
2023-02-07T20:46:08.170Z,101.95
2023-02-07T20:47:08.146Z,101.74
2023-02-07T20:48:08.409Z,102.33
2023-02-07T20:49:08.103Z,101.13
2023-02-07T20:50:08.074Z,99.46
2023-02-07T20:51:08.803Z,101.80
2023-02-07T20:52:08.087Z,101.13
2023-02-07T20:53:08.076Z,101.33
2023-02-07T20:54:08.795Z,102.32
2023-02-07T20:55:08.021Z,100.59
2023-02-07T20:56:07.992Z,101.26
2023-02-07T20:57:08.557Z,101.87
2023-02-07T20:58:07.997Z,98.59
2023-02-07T20:59:07.922Z,99.87
2023-02-07T21:00:07.938Z,100.41
2023-02-07T21:01:07.938Z,101.30
2023-02-07T21:02:07.961Z,99.77
2023-02-07T21:03:07.845Z,100.84
2023-02-07T21:04:07.837Z,99.98
2023-02-07T21:05:08.802Z,99.84
2023-02-07T21:06:07.807Z,98.37
2023-02-07T21:07:07.776Z,98.69
2023-02-07T21:08:07.771Z,98.64
2023-02-07T21:09:07.739Z,99.91
2023-02-07T21:10:07.716Z,99.29
2023-02-07T21:11:07.716Z,100.07
2023-02-07T21:12:07.712Z,98.89
2023-02-07T21:13:07.656Z,98.29
2023-02-07T21:14:07.639Z,97.74
2023-02-07T21:15:07.634Z,99.59
2023-02-07T21:16:07.609Z,97.04
2023-02-07T21:17:08.330Z,97.08
2023-02-07T21:18:07.584Z,99.39
2023-02-07T21:19:07.609Z,97.90
2023-02-07T21:20:07.566Z,98.18
2023-02-07T21:21:07.553Z,96.55
2023-02-07T21:22:07.612Z,97.95
2023-02-07T21:23:07.512Z,97.95
2023-02-07T21:24:07.535Z,97.14
2023-02-07T21:25:07.521Z,96.76
2023-02-07T21:26:07.460Z,97.04
2023-02-07T21:27:07.469Z,96.48
2023-02-07T21:28:07.516Z,96.56
2023-02-07T21:29:07.406Z,96.28
2023-02-07T21:30:08.310Z,95.75
2023-02-07T21:31:07.389Z,96.53
2023-02-07T21:32:07.483Z,97.98
2023-02-07T21:33:07.362Z,95.41
2023-02-07T21:34:07.328Z,95.51
2023-02-07T21:35:07.331Z,95.95
2023-02-07T21:36:07.294Z,96.30